Time;durP1;ratioP1;P1;durP2;ratioP2;P2;SDS_P1;SDS_P2;PMS_P1;PMS_P2;Temp;Humidity;BMP_temperature;BMP_pressure;BME280_temperature;BME280_humidity;BME280_pressure;Samples;Min_cycle;Max_cycle;Signal;HPM_P1;HPM_P2
2023/04/06 00:01:45;;;;;;;14.30;6.05;;;;;;;;;;5024024;28;20029;-56
2023/04/06 00:04:10;;;;;;;16.08;5.68;;;;;;;;;;5024295;28;20026;-53
2023/04/06 00:06:35;;;;;;;10.40;5.75;;;;;;;;;;5024058;28;20029;-55
2023/04/06 00:09:01;;;;;;;13.93;7.28;;;;;;;;;;5024215;28;20045;-53
2023/04/06 00:11:26;;;;;;;13.07;6.72;;;;;;;;;;5022469;28;20479;-52
2023/04/06 00:13:52;;;;;;;12.38;5.82;;;;;;;;;;5023835;28;20025;-54
2023/04/06 00:16:17;;;;;;;15.32;6.55;;;;;;;;;;5024012;28;20551;-53
2023/04/06 00:18:42;;;;;;;12.25;6.35;;;;;;;;;;5023536;28;20040;-49
2023/04/06 00:21:08;;;;;;;16.85;6.72;;;;;;;;;;5023865;28;20029;-55
2023/04/06 00:23:33;;;;;;;16.52;5.93;;;;;;;;;;5023483;28;20029;-54
2023/04/06 00:25:58;;;;;;;12.55;6.05;;;;;;;;;;5037990;28;20140;-53
2023/04/06 00:28:26;;;;;;;12.82;6.65;;;;;;;;;;5023651;28;20018;-55
2023/04/06 00:30:52;;;;;;;15.75;6.68;;;;;;;;;;5023919;28;20037;-54
2023/04/06 00:33:18;;;;;;;15.90;6.60;;;;;;;;;;5023657;28;20033;-52
2023/04/06 00:35:43;;;;;;;10.85;6.03;;;;;;;;;;5023845;28;20417;-56
2023/04/06 00:38:09;;;;;;;18.77;6.53;;;;;;;;;;5024054;28;20018;-55
2023/04/06 00:40:35;;;;;;;15.40;6.80;;;;;;;;;;5023792;28;20108;-56
2023/04/06 00:43:00;;;;;;;14.85;6.53;;;;;;;;;;5023756;28;20488;-54
2023/04/06 00:45:25;;;;;;;16.38;6.85;;;;;;;;;;5024121;28;20017;-54
2023/04/06 00:47:50;;;;;;;21.02;6.82;;;;;;;;;;5027953;28;20051;-54
2023/04/06 00:50:16;;;;;;;18.65;6.75;;;;;;;;;;5027631;28;20029;-52
2023/04/06 00:52:42;;;;;;;13.63;6.18;;;;;;;;;;5027879;28;20087;-53
2023/04/06 00:55:07;;;;;;;13.07;6.10;;;;;;;;;;5027565;28;20032;-56
2023/04/06 00:57:32;;;;;;;15.18;6.88;;;;;;;;;;5008469;28;20385;-54
2023/04/06 00:59:58;;;;;;;17.77;6.47;;;;;;;;;;5027449;28;20083;-55
2023/04/06 01:02:24;;;;;;;14.98;7.35;;;;;;;;;;5027429;28;20021;-53
2023/04/06 01:04:49;;;;;;;16.45;6.68;;;;;;;;;;5027451;28;20472;-52
2023/04/06 01:07:15;;;;;;;16.38;7.25;;;;;;;;;;5027316;28;20035;-54
2023/04/06 01:09:41;;;;;;;21.95;6.97;;;;;;;;;;5027417;28;20501;-54
2023/04/06 01:12:07;;;;;;;21.98;7.97;;;;;;;;;;5027505;28;20032;-54
2023/04/06 01:14:32;;;;;;;22.95;7.50;;;;;;;;;;5027470;28;20026;-56
2023/04/06 01:17:00;;;;;;;22.65;7.47;;;;;;;;;;5041353;28;20026;-56
2023/04/06 01:19:25;;;;;;;18.83;7.03;;;;;;;;;;5027525;28;20022;-54
2023/04/06 01:21:52;;;;;;;19.23;7.07;;;;;;;;;;5026972;28;20048;-55
2023/04/06 01:24:18;;;;;;;17.27;7.82;;;;;;;;;;5027022;28;20135;-53
2023/04/06 01:26:44;;;;;;;20.23;8.32;;;;;;;;;;5026223;28;20481;-55
2023/04/06 01:29:09;;;;;;;21.08;7.50;;;;;;;;;;5026722;28;20025;-53
2023/04/06 01:31:35;;;;;;;19.00;8.73;;;;;;;;;;5026721;28;20021;-54
2023/04/06 01:34:00;;;;;;;20.98;7.38;;;;;;;;;;5025397;28;20520;-52
2023/04/06 01:36:25;;;;;;;13.32;6.53;;;;;;;;;;5026790;28;20057;-55
2023/04/06 01:38:50;;;;;;;17.17;7.82;;;;;;;;;;5026397;28;20310;-53
2023/04/06 01:41:16;;;;;;;16.48;7.93;;;;;;;;;;5026442;28;20337;-51
2023/04/06 01:43:41;;;;;;;15.43;7.57;;;;;;;;;;5026548;28;20079;-55
2023/04/06 01:46:06;;;;;;;16.60;7.20;;;;;;;;;;5026814;28;20022;-52
2023/04/06 01:48:32;;;;;;;18.50;7.07;;;;;;;;;;5026735;28;20413;-53
2023/04/06 01:50:57;;;;;;;20.88;8.18;;;;;;;;;;5027019;28;20049;-54
2023/04/06 01:53:22;;;;;;;13.30;7.55;;;;;;;;;;5026582;28;20018;-53
2023/04/06 01:55:47;;;;;;;15.07;6.55;;;;;;;;;;5025177;28;20029;-50
2023/04/06 01:58:13;;;;;;;21.48;7.93;;;;;;;;;;5026044;28;20028;-50
2023/04/06 02:00:38;;;;;;;18.70;8.35;;;;;;;;;;5026612;28;20358;-50
2023/04/06 02:03:04;;;;;;;18.02;7.68;;;;;;;;;;5026487;28;20057;-51
2023/04/06 02:05:30;;;;;;;20.85;7.93;;;;;;;;;;5026226;28;20028;-54
2023/04/06 02:07:56;;;;;;;21.40;8.30;;;;;;;;;;5026350;28;20041;-56
2023/04/06 02:10:21;;;;;;;17.92;7.90;;;;;;;;;;5007067;28;20041;-55
2023/04/06 02:12:46;;;;;;;14.73;6.85;;;;;;;;;;5026063;28;20397;-51
2023/04/06 02:15:13;;;;;;;15.32;7.57;;;;;;;;;;5025940;28;20017;-51
2023/04/06 02:17:38;;;;;;;20.98;7.90;;;;;;;;;;5026389;28;20108;-55
2023/04/06 02:20:04;;;;;;;17.70;7.50;;;;;;;;;;5026019;28;20128;-51
2023/04/06 02:22:29;;;;;;;18.13;6.88;;;;;;;;;;5025922;28;20075;-57
2023/04/06 02:24:54;;;;;;;18.17;8.88;;;;;;;;;;5025875;28;20026;-50
2023/04/06 02:27:19;;;;;;;15.73;7.90;;;;;;;;;;5025721;28;20477;-54
2023/04/06 02:29:45;;;;;;;19.08;6.75;;;;;;;;;;5025725;28;20036;-52
2023/04/06 02:32:10;;;;;;;22.75;8.55;;;;;;;;;;5025925;28;20032;-51
2023/04/06 02:34:35;;;;;;;20.45;8.00;;;;;;;;;;5025533;28;20057;-55
2023/04/06 02:37:01;;;;;;;18.00;7.72;;;;;;;;;;5025772;28;20024;-54
2023/04/06 02:39:26;;;;;;;15.23;7.68;;;;;;;;;;5025765;28;20333;-54
2023/04/06 02:41:52;;;;;;;19.80;7.35;;;;;;;;;;5025814;28;20024;-53
2023/04/06 02:44:17;;;;;;;18.08;7.72;;;;;;;;;;5025450;28;20029;-52
2023/04/06 02:46:42;;;;;;;18.95;7.43;;;;;;;;;;5025746;28;20022;-53
2023/04/06 02:49:08;;;;;;;20.00;7.78;;;;;;;;;;5025668;28;20029;-52
2023/04/06 02:51:33;;;;;;;17.15;7.75;;;;;;;;;;5025517;28;20029;-51
2023/04/06 02:53:58;;;;;;;19.90;7.63;;;;;;;;;;5025461;28;20018;-54
2023/04/06 02:56:24;;;;;;;15.40;7.13;;;;;;;;;;5025525;28;20052;-50
2023/04/06 02:58:49;;;;;;;18.10;7.82;;;;;;;;;;5025273;28;20397;-53
2023/04/06 03:01:15;;;;;;;16.27;7.18;;;;;;;;;;5025221;28;20695;-49
2023/04/06 03:03:40;;;;;;;16.35;6.47;;;;;;;;;;5025168;28;20055;-51
2023/04/06 03:06:05;;;;;;;24.15;9.10;;;;;;;;;;5022591;28;20473;-51
2023/04/06 03:08:31;;;;;;;34.60;11.10;;;;;;;;;;5023980;28;20113;-52
2023/04/06 03:10:56;;;;;;;58.00;15.15;;;;;;;;;;5025559;28;20025;-55
2023/04/06 03:13:21;;;;;;;111.97;26.20;;;;;;;;;;5024803;28;20030;-53
2023/04/06 03:15:46;;;;;;;104.72;28.20;;;;;;;;;;5025222;28;20025;-52
2023/04/06 03:18:12;;;;;;;109.05;29.17;;;;;;;;;;5025208;28;20034;-52
2023/04/06 03:20:37;;;;;;;124.40;33.78;;;;;;;;;;5024945;28;20044;-54
2023/04/06 03:23:02;;;;;;;104.03;24.67;;;;;;;;;;5021907;28;20041;-53
2023/04/06 03:25:29;;;;;;;86.47;22.23;;;;;;;;;;5024821;28;20026;-51
2023/04/06 03:27:55;;;;;;;57.40;15.73;;;;;;;;;;5024936;28;20116;-53
2023/04/06 03:30:20;;;;;;;48.30;14.95;;;;;;;;;;5024457;28;20523;-52
2023/04/06 03:32:45;;;;;;;29.63;11.38;;;;;;;;;;5024701;28;20033;-55
2023/04/06 03:35:10;;;;;;;28.08;9.65;;;;;;;;;;5024338;28;20669;-49
2023/04/06 03:37:36;;;;;;;29.48;9.02;;;;;;;;;;5024787;28;20351;-52
2023/04/06 03:40:01;;;;;;;22.27;9.45;;;;;;;;;;5024706;28;20040;-55
2023/04/06 03:42:26;;;;;;;27.17;9.02;;;;;;;;;;5024500;28;20385;-48
2023/04/06 03:44:52;;;;;;;31.63;10.60;;;;;;;;;;5024092;28;20025;-53
2023/04/06 03:47:17;;;;;;;30.50;9.35;;;;;;;;;;5024112;28;20021;-54
2023/04/06 03:49:42;;;;;;;24.02;8.60;;;;;;;;;;5024304;28;20083;-51
2023/04/06 03:52:08;;;;;;;31.17;8.85;;;;;;;;;;5024418;28;20018;-55
2023/04/06 03:54:33;;;;;;;27.35;9.65;;;;;;;;;;5023943;28;20083;-54
2023/04/06 03:56:58;;;;;;;22.33;8.55;;;;;;;;;;5024163;28;20444;-54
2023/04/06 03:59:24;;;;;;;21.45;9.13;;;;;;;;;;5024314;28;20497;-54
2023/04/06 04:01:49;;;;;;;36.17;12.73;;;;;;;;;;5024310;28;20025;-55
2023/04/06 04:04:14;;;;;;;40.67;14.55;;;;;;;;;;5024088;28;20029;-54
2023/04/06 04:06:40;;;;;;;46.08;16.20;;;;;;;;;;5023826;28;20105;-49
2023/04/06 04:09:05;;;;;;;44.13;16.05;;;;;;;;;;5023723;28;20457;-53
2023/04/06 04:11:30;;;;;;;56.38;18.50;;;;;;;;;;5024227;28;20037;-56
2023/04/06 04:13:55;;;;;;;57.88;19.35;;;;;;;;;;5024102;28;20409;-51
2023/04/06 04:16:21;;;;;;;62.20;20.67;;;;;;;;;;5023885;28;20022;-50
2023/04/06 04:18:48;;;;;;;60.63;20.60;;;;;;;;;;5023856;28;20113;-56
2023/04/06 04:21:13;;;;;;;59.60;20.05;;;;;;;;;;5021930;28;20082;-52
2023/04/06 04:23:38;;;;;;;55.50;19.42;;;;;;;;;;5023805;28;20025;-52
2023/04/06 04:26:04;;;;;;;51.53;18.10;;;;;;;;;;5024197;28;20017;-51
2023/04/06 04:28:29;;;;;;;38.17;15.35;;;;;;;;;;5023737;28;20417;-51
2023/04/06 04:30:54;;;;;;;42.42;15.63;;;;;;;;;;5023856;28;20022;-51
2023/04/06 04:33:19;;;;;;;41.30;15.57;;;;;;;;;;5023728;28;20248;-51
2023/04/06 04:35:45;;;;;;;39.55;15.50;;;;;;;;;;5023880;28;20888;-52
2023/04/06 04:38:10;;;;;;;39.00;14.65;;;;;;;;;;5024167;28;20024;-56
2023/04/06 04:40:35;;;;;;;43.13;13.88;;;;;;;;;;5024002;28;20465;-56
2023/04/06 04:43:01;;;;;;;52.05;14.90;;;;;;;;;;5023740;28;20026;-53
2023/04/06 04:45:26;;;;;;;33.70;12.98;;;;;;;;;;5023382;28;20506;-51
2023/04/06 04:47:51;;;;;;;49.03;14.15;;;;;;;;;;5024261;28;20025;-56
2023/04/06 04:50:16;;;;;;;52.88;15.38;;;;;;;;;;5023695;28;20366;-52
2023/04/06 04:52:42;;;;;;;41.60;14.07;;;;;;;;;;5023943;28;20806;-53
2023/04/06 04:55:07;;;;;;;40.92;14.25;;;;;;;;;;5023585;28;20611;-55
2023/04/06 04:57:32;;;;;;;30.30;13.15;;;;;;;;;;5023655;28;20030;-56
2023/04/06 04:59:58;;;;;;;43.90;15.10;;;;;;;;;;5023850;28;20018;-56
2023/04/06 05:02:23;;;;;;;52.72;16.95;;;;;;;;;;5023491;28;20026;-54
2023/04/06 05:04:48;;;;;;;58.67;17.58;;;;;;;;;;5023507;28;20017;-55
2023/04/06 05:07:15;;;;;;;39.80;14.73;;;;;;;;;;5023720;28;20263;-52
2023/04/06 05:09:40;;;;;;;55.55;16.13;;;;;;;;;;5022042;28;20029;-53
2023/04/06 05:12:05;;;;;;;46.30;15.98;;;;;;;;;;5023766;28;20388;-52
2023/04/06 05:14:31;;;;;;;40.75;14.20;;;;;;;;;;5023817;28;20033;-53
2023/04/06 05:16:56;;;;;;;48.38;15.77;;;;;;;;;;5024123;28;20075;-51
2023/04/06 05:19:21;;;;;;;40.72;13.40;;;;;;;;;;5023689;28;20025;-52
2023/04/06 05:21:47;;;;;;;26.40;12.02;;;;;;;;;;5023091;28;20388;-54
2023/04/06 05:24:12;;;;;;;27.77;9.90;;;;;;;;;;5023332;28;20364;-48
2023/04/06 05:26:37;;;;;;;21.95;9.18;;;;;;;;;;5023500;28;20119;-53
2023/04/06 05:29:02;;;;;;;19.30;8.30;;;;;;;;;;5004506;28;20038;-50
2023/04/06 05:31:28;;;;;;;21.33;9.10;;;;;;;;;;5023475;28;20094;-51
2023/04/06 05:33:54;;;;;;;19.52;8.68;;;;;;;;;;5026955;28;20031;-54
2023/04/06 05:36:19;;;;;;;16.45;8.32;;;;;;;;;;5027389;28;20053;-52
2023/04/06 05:38:44;;;;;;;15.07;7.60;;;;;;;;;;5026808;28;20036;-52
2023/04/06 05:41:10;;;;;;;16.75;7.75;;;;;;;;;;5027152;28;20041;-55
2023/04/06 05:43:35;;;;;;;18.67;7.32;;;;;;;;;;5027005;28;20543;-56
2023/04/06 05:46:00;;;;;;;14.75;7.53;;;;;;;;;;5041099;28;20025;-55
2023/04/06 05:48:26;;;;;;;15.43;7.68;;;;;;;;;;5026732;28;20124;-55
2023/04/06 05:50:51;;;;;;;17.85;8.57;;;;;;;;;;5027010;28;20029;-56
2023/04/06 05:53:17;;;;;;;18.13;7.93;;;;;;;;;;5040805;28;20064;-53
2023/04/06 05:55:42;;;;;;;15.02;7.88;;;;;;;;;;5026827;28;20056;-53
2023/04/06 05:58:07;;;;;;;17.02;8.25;;;;;;;;;;5026900;28;20111;-55
2023/04/06 06:00:33;;;;;;;19.38;8.38;;;;;;;;;;5026468;28;20033;-53
2023/04/06 06:02:58;;;;;;;21.70;8.27;;;;;;;;;;5026359;28;20032;-56
2023/04/06 06:05:23;;;;;;;18.60;8.93;;;;;;;;;;5026334;28;20013;-56
2023/04/06 06:07:48;;;;;;;24.77;8.93;;;;;;;;;;5026476;28;20061;-54
2023/04/06 06:10:14;;;;;;;20.88;9.52;;;;;;;;;;5026773;28;20063;-53
2023/04/06 06:12:39;;;;;;;20.55;9.48;;;;;;;;;;5026594;28;20032;-53
2023/04/06 06:15:05;;;;;;;20.27;9.13;;;;;;;;;;5023628;28;20041;-53
2023/04/06 06:17:30;;;;;;;18.75;9.40;;;;;;;;;;5026632;28;20056;-57
2023/04/06 06:19:55;;;;;;;17.33;8.95;;;;;;;;;;5023678;28;20033;-56
2023/04/06 06:22:21;;;;;;;22.58;8.88;;;;;;;;;;5026093;28;20030;-52
2023/04/06 06:24:46;;;;;;;14.90;8.02;;;;;;;;;;5025833;28;20021;-55
2023/04/06 06:27:11;;;;;;;18.70;8.00;;;;;;;;;;5024775;28;20441;-56
2023/04/06 06:29:37;;;;;;;16.63;7.13;;;;;;;;;;5019449;28;20021;-51
2023/04/06 06:32:02;;;;;;;14.38;7.60;;;;;;;;;;5021787;28;21142;-55
2023/04/06 06:34:27;;;;;;;19.27;8.32;;;;;;;;;;5023700;28;20040;-56
2023/04/06 06:36:55;;;;;;;22.17;8.98;;;;;;;;;;5018170;28;20089;-53
2023/04/06 06:39:20;;;;;;;16.88;8.00;;;;;;;;;;5021258;28;20021;-55
2023/04/06 06:41:45;;;;;;;19.80;8.63;;;;;;;;;;5023761;28;20111;-58
2023/04/06 06:44:10;;;;;;;16.42;8.60;;;;;;;;;;5023705;28;20635;-56
2023/04/06 06:46:36;;;;;;;16.40;7.63;;;;;;;;;;5023514;28;20041;-57
2023/04/06 06:49:02;;;;;;;16.98;7.63;;;;;;;;;;5022689;28;20037;-56
2023/04/06 06:51:28;;;;;;;17.83;8.20;;;;;;;;;;5024698;28;20025;-52
2023/04/06 06:53:53;;;;;;;13.77;7.43;;;;;;;;;;5024762;28;20036;-56
2023/04/06 06:56:18;;;;;;;14.35;7.15;;;;;;;;;;5024507;28;20033;-54
2023/04/06 06:58:43;;;;;;;12.82;7.55;;;;;;;;;;5024561;28;20029;-54
2023/04/06 07:01:09;;;;;;;16.15;8.32;;;;;;;;;;5022842;28;20037;-57
2023/04/06 07:03:34;;;;;;;16.20;7.82;;;;;;;;;;5025548;28;20116;-53
2023/04/06 07:05:59;;;;;;;13.18;7.28;;;;;;;;;;5000781;28;20037;-53
2023/04/06 07:08:25;;;;;;;12.30;7.25;;;;;;;;;;5021409;28;20025;-50
2023/04/06 07:10:56;;;;;;;19.42;7.40;;;;;;;;;;5021071;28;20021;-54
2023/04/06 07:13:24;;;;;;;12.65;7.10;;;;;;;;;;5019064;28;20032;-53
2023/04/06 07:15:50;;;;;;;19.90;8.30;;;;;;;;;;5022643;28;20021;-55
2023/04/06 07:18:16;;;;;;;16.95;7.47;;;;;;;;;;5022770;28;20032;-55
2023/04/06 07:20:41;;;;;;;15.68;7.65;;;;;;;;;;5024031;28;20033;-55
2023/04/06 07:23:06;;;;;;;21.30;8.63;;;;;;;;;;5024424;28;20025;-57
2023/04/06 07:25:32;;;;;;;18.70;7.82;;;;;;;;;;5022329;28;20037;-56
2023/04/06 07:27:57;;;;;;;20.17;7.45;;;;;;;;;;5022439;28;20025;-56
2023/04/06 07:30:24;;;;;;;15.27;7.88;;;;;;;;;;5020224;28;20113;-56
2023/04/06 07:32:50;;;;;;;16.35;7.68;;;;;;;;;;5019574;28;20041;-54
2023/04/06 07:35:16;;;;;;;14.13;6.80;;;;;;;;;;5018988;28;20054;-55
2023/04/06 07:37:42;;;;;;;21.40;7.30;;;;;;;;;;5008852;28;20025;-55
2023/04/06 07:40:08;;;;;;;17.02;7.07;;;;;;;;;;5021536;28;20026;-54
2023/04/06 07:42:34;;;;;;;18.58;7.18;;;;;;;;;;5020637;28;20068;-54
2023/04/06 07:45:00;;;;;;;12.32;6.82;;;;;;;;;;5017214;28;20032;-55
2023/04/06 07:47:25;;;;;;;14.32;6.70;;;;;;;;;;5019702;28;20033;-54
2023/04/06 07:49:51;;;;;;;10.60;6.35;;;;;;;;;;5023329;28;20481;-56
2023/04/06 07:52:16;;;;;;;14.20;6.68;;;;;;;;;;5019151;28;20021;-54
2023/04/06 07:54:42;;;;;;;17.25;7.35;;;;;;;;;;5024432;28;20049;-57
2023/04/06 07:57:07;;;;;;;14.55;7.07;;;;;;;;;;5020949;28;20404;-55
2023/04/06 07:59:32;;;;;;;13.82;6.95;;;;;;;;;;5020291;28;20388;-57
2023/04/06 08:01:58;;;;;;;12.38;6.20;;;;;;;;;;5018036;28;20485;-52
2023/04/06 08:04:23;;;;;;;14.55;7.10;;;;;;;;;;5024403;28;20472;-56
2023/04/06 08:06:48;;;;;;;14.55;6.53;;;;;;;;;;5025037;28;20025;-57
2023/04/06 08:09:14;;;;;;;13.25;7.13;;;;;;;;;;5024855;28;20033;-55
2023/04/06 08:11:39;;;;;;;16.10;7.63;;;;;;;;;;5025201;28;20521;-53
2023/04/06 08:14:04;;;;;;;44.00;15.45;;;;;;;;;;5020001;28;20100;-58
2023/04/06 08:16:30;;;;;;;39.38;14.45;;;;;;;;;;5024512;28;20021;-56
2023/04/06 08:18:55;;;;;;;23.73;10.45;;;;;;;;;;5023956;28;20033;-55
2023/04/06 08:21:20;;;;;;;23.60;9.43;;;;;;;;;;5016571;28;20025;-56
2023/04/06 08:23:46;;;;;;;17.35;8.15;;;;;;;;;;5036034;28;20079;-54
2023/04/06 08:26:11;;;;;;;16.20;8.02;;;;;;;;;;5027791;28;20029;-57
2023/04/06 08:28:37;;;;;;;21.55;9.27;;;;;;;;;;5024083;28;20453;-59
2023/04/06 08:31:03;;;;;;;15.20;7.43;;;;;;;;;;5022455;28;20492;-59
2023/04/06 08:33:28;;;;;;;15.45;7.82;;;;;;;;;;5013034;28;20057;-59
2023/04/06 08:35:54;;;;;;;14.70;7.90;;;;;;;;;;5022853;28;20073;-59
2023/04/06 08:38:19;;;;;;;13.48;6.40;;;;;;;;;;5021531;28;20041;-58
2023/04/06 08:40:47;;;;;;;18.95;8.30;;;;;;;;;;5015696;28;20043;-55
2023/04/06 08:43:13;;;;;;;13.35;6.75;;;;;;;;;;5014097;28;20025;-55
2023/04/06 08:45:38;;;;;;;18.08;7.38;;;;;;;;;;5012832;28;20022;-57
2023/04/06 08:48:06;;;;;;;16.70;7.93;;;;;;;;;;5013879;28;20394;-59
2023/04/06 08:50:32;;;;;;;15.05;7.32;;;;;;;;;;5019241;28;20021;-59
2023/04/06 08:52:57;;;;;;;16.52;7.32;;;;;;;;;;5022740;28;22023;-58
2023/04/06 08:55:23;;;;;;;14.45;7.38;;;;;;;;;;5021649;28;20331;-58
2023/04/06 08:57:49;;;;;;;18.23;8.25;;;;;;;;;;5021281;28;20425;-59
2023/04/06 09:00:15;;;;;;;20.05;9.63;;;;;;;;;;5018815;28;20017;-58
2023/04/06 09:02:43;;;;;;;16.77;7.93;;;;;;;;;;5024398;28;20021;-54
2023/04/06 09:05:09;;;;;;;19.00;7.63;;;;;;;;;;5021444;28;20411;-58
2023/04/06 09:07:35;;;;;;;18.15;8.45;;;;;;;;;;5024654;28;20457;-57
2023/04/06 09:10:01;;;;;;;17.75;7.57;;;;;;;;;;5041819;28;20032;-58
2023/04/06 09:12:27;;;;;;;15.75;7.32;;;;;;;;;;5041756;28;20573;-55
2023/04/06 09:14:52;;;;;;;13.38;6.80;;;;;;;;;;5027197;28;20038;-56
2023/04/06 09:17:24;;;;;;;19.52;6.78;;;;;;;;;;5026027;28;20373;-58
2023/04/06 09:19:50;;;;;;;17.08;6.88;;;;;;;;;;5011336;28;20564;-56
2023/04/06 09:22:15;;;;;;;17.13;7.15;;;;;;;;;;5028322;28;20521;-55
2023/04/06 09:24:44;;;;;;;13.40;7.00;;;;;;;;;;5028510;28;20026;-55
2023/04/06 09:27:10;;;;;;;14.48;7.22;;;;;;;;;;5027040;28;20063;-53
2023/04/06 09:29:36;;;;;;;14.05;7.25;;;;;;;;;;5030111;28;20033;-56
2023/04/06 09:32:05;;;;;;;17.08;7.25;;;;;;;;;;5026675;28;20034;-54
2023/04/06 09:34:31;;;;;;;;;;;;;;;;;;5031680;28;20064;-52
2023/04/06 09:36:56;;;;;;;14.33;6.57;;;;;;;;;;5031922;28;19967;-56
2023/04/06 09:39:23;;;;;;;15.98;7.13;;;;;;;;;;5030955;28;20251;-57
2023/04/06 09:41:49;;;;;;;15.25;7.72;;;;;;;;;;5030822;28;20108;-56
2023/04/06 09:44:15;;;;;;;17.20;7.35;;;;;;;;;;5031333;28;20029;-56
2023/04/06 09:46:41;;;;;;;15.45;7.57;;;;;;;;;;5027728;28;20568;-57
2023/04/06 09:49:08;;;;;;;13.90;7.20;;;;;;;;;;5027163;28;20034;-57
2023/04/06 09:51:47;;;;;;;13.90;6.18;;;;;;;;;;5026126;28;20021;-53
2023/04/06 09:54:15;;;;;;;14.73;6.77;;;;;;;;;;5027226;28;20057;-55
2023/04/06 09:56:46;;;;;;;16.88;7.30;;;;;;;;;;5027082;28;20022;-55
2023/04/06 09:59:20;;;;;;;13.25;6.47;;;;;;;;;;5026952;28;20033;-56
2023/04/06 10:01:47;;;;;;;14.20;7.00;;;;;;;;;;5027206;28;20397;-56
2023/04/06 10:04:20;;;;;;;16.83;7.38;;;;;;;;;;5026928;28;20105;-58
2023/04/06 10:06:47;;;;;;;14.00;6.97;;;;;;;;;;5024248;28;20092;-58
2023/04/06 10:09:14;;;;;;;17.00;7.72;;;;;;;;;;5024137;28;20033;-57
2023/04/06 10:11:40;;;;;;;13.57;7.55;;;;;;;;;;5025550;28;20045;-57
2023/04/06 10:14:05;;;;;;;14.52;8.30;;;;;;;;;;5026470;28;20057;-56
2023/04/06 10:16:30;;;;;;;13.95;7.22;;;;;;;;;;5024521;28;20095;-56
2023/04/06 10:19:03;;;;;;;19.00;8.43;;;;;;;;;;5025015;28;20503;-52
2023/04/06 10:21:29;;;;;;;14.95;7.78;;;;;;;;;;5026623;28;20034;-56
2023/04/06 10:23:57;;;;;;;14.60;8.13;;;;;;;;;;5025390;28;20086;-52
2023/04/06 10:26:23;;;;;;;14.43;7.68;;;;;;;;;;5019971;28;20026;-57
2023/04/06 10:28:49;;;;;;;16.83;8.70;;;;;;;;;;5017912;28;20041;-56
2023/04/06 10:31:15;;;;;;;17.63;8.20;;;;;;;;;;5026642;28;20079;-59
2023/04/06 10:33:40;;;;;;;18.33;8.30;;;;;;;;;;5026260;28;20021;-58
2023/04/06 10:36:11;;;;;;;19.02;8.35;;;;;;;;;;5026144;28;20050;-55
2023/04/06 10:38:37;;;;;;;14.85;8.15;;;;;;;;;;5024124;28;20524;-56
2023/04/06 10:41:04;;;;;;;19.83;8.60;;;;;;;;;;5026109;28;20028;-56
2023/04/06 10:43:32;;;;;;;25.17;7.97;;;;;;;;;;5018183;28;20031;-54
2023/04/06 10:45:59;;;;;;;16.45;8.70;;;;;;;;;;5025969;28;20083;-58
2023/04/06 10:48:25;;;;;;;15.45;7.68;;;;;;;;;;5021221;28;20432;-57
2023/04/06 10:50:52;;;;;;;21.88;8.60;;;;;;;;;;5022692;28;20082;-57
2023/04/06 10:53:26;;;;;;;15.45;8.45;;;;;;;;;;5017865;28;20117;-59
2023/04/06 10:55:54;;;;;;;15.07;7.85;;;;;;;;;;5022446;28;20481;-56
2023/04/06 10:58:19;;;;;;;11.50;7.55;;;;;;;;;;5025882;28;20063;-58
2023/04/06 11:00:45;;;;;;;15.77;7.70;;;;;;;;;;5025189;28;20476;-56
2023/04/06 11:03:10;;;;;;;11.23;6.95;;;;;;;;;;5025439;28;20021;-59
2023/04/06 11:05:36;;;;;;;16.45;8.27;;;;;;;;;;5016357;28;20179;-56
2023/04/06 11:08:01;;;;;;;17.70;8.40;;;;;;;;;;5020286;28;20028;-56
2023/04/06 11:10:26;;;;;;;16.17;8.25;;;;;;;;;;5020764;28;20120;-59
2023/04/06 11:12:55;;;;;;;13.88;7.57;;;;;;;;;;5015178;28;20366;-56
2023/04/06 11:15:20;;;;;;;17.23;8.07;;;;;;;;;;5021260;28;20032;-54
2023/04/06 11:17:45;;;;;;;14.73;7.30;;;;;;;;;;5021521;28;20263;-57
2023/04/06 11:20:11;;;;;;;14.25;8.18;;;;;;;;;;5022414;28;20033;-56
2023/04/06 11:22:36;;;;;;;15.40;7.80;;;;;;;;;;5022696;28;20025;-58
2023/04/06 11:25:06;;;;;;;18.40;8.75;;;;;;;;;;5021133;28;20025;-56
2023/04/06 11:27:31;;;;;;;14.75;7.57;;;;;;;;;;5021037;28;20485;-56
2023/04/06 11:29:58;;;;;;;16.85;7.78;;;;;;;;;;5020915;28;20034;-58
2023/04/06 11:32:24;;;;;;;15.65;7.35;;;;;;;;;;5021930;28;20017;-54
2023/04/06 11:34:49;;;;;;;11.77;7.57;;;;;;;;;;5020938;28;20025;-56
2023/04/06 11:37:14;;;;;;;15.00;7.20;;;;;;;;;;5016506;28;20021;-55
2023/04/06 11:39:41;;;;;;;13.95;7.63;;;;;;;;;;5021262;28;20478;-56
2023/04/06 11:42:07;;;;;;;13.00;7.50;;;;;;;;;;5021722;28;20041;-57
2023/04/06 11:44:32;;;;;;;13.05;7.13;;;;;;;;;;5023102;28;20017;-56
2023/04/06 11:46:58;;;;;;;12.13;6.72;;;;;;;;;;5022131;28;20496;-57
2023/04/06 11:49:26;;;;;;;13.25;6.95;;;;;;;;;;5019930;28;20033;-58
2023/04/06 11:51:52;;;;;;;20.08;8.02;;;;;;;;;;5019290;28;20017;-58
2023/04/06 11:54:17;;;;;;;16.33;8.57;;;;;;;;;;5021717;28;20474;-56
2023/04/06 11:56:46;;;;;;;11.43;7.47;;;;;;;;;;5019079;28;20120;-59
2023/04/06 11:59:11;;;;;;;13.43;7.53;;;;;;;;;;5019489;28;20462;-54
2023/04/06 12:01:44;;;;;;;17.75;7.55;;;;;;;;;;5019436;28;20041;-56
2023/04/06 12:04:09;;;;;;;15.88;8.40;;;;;;;;;;5020722;28;20104;-59
2023/04/06 12:06:35;;;;;;;16.58;7.88;;;;;;;;;;5018731;28;20148;-58
2023/04/06 12:09:00;;;;;;;19.33;8.10;;;;;;;;;;5017814;28;20033;-58
2023/04/06 12:11:25;;;;;;;16.23;8.05;;;;;;;;;;5023965;28;20064;-56
2023/04/06 12:13:51;;;;;;;14.52;8.05;;;;;;;;;;5034495;28;20380;-57
2023/04/06 12:16:16;;;;;;;18.20;7.60;;;;;;;;;;5019240;28;20025;-57
2023/04/06 12:18:41;;;;;;;17.40;8.15;;;;;;;;;;5022368;28;20384;-54
2023/04/06 12:21:07;;;;;;;15.43;7.53;;;;;;;;;;5020014;28;20355;-56
2023/04/06 12:23:32;;;;;;;16.30;7.72;;;;;;;;;;5020855;28;20033;-57
2023/04/06 12:25:57;;;;;;;18.08;7.75;;;;;;;;;;5019868;28;20444;-56
2023/04/06 12:28:26;;;;;;;15.15;7.38;;;;;;;;;;5024152;28;20029;-55
2023/04/06 12:30:51;;;;;;;15.73;7.50;;;;;;;;;;5019969;28;20049;-56
2023/04/06 12:33:17;;;;;;;17.60;7.85;;;;;;;;;;5017666;28;20030;-58
2023/04/06 12:35:42;;;;;;;18.17;8.18;;;;;;;;;;5021346;28;20544;-55
2023/04/06 12:38:07;;;;;;;13.07;7.18;;;;;;;;;;5023372;28;20484;-57
2023/04/06 12:40:36;;;;;;;13.65;7.82;;;;;;;;;;5022544;28;20383;-54
2023/04/06 12:43:01;;;;;;;18.13;7.80;;;;;;;;;;5023304;28;20014;-57
2023/04/06 12:45:26;;;;;;;17.75;7.65;;;;;;;;;;5024374;28;20037;-58
2023/04/06 12:47:52;;;;;;;15.02;7.72;;;;;;;;;;5027123;28;20052;-54
2023/04/06 12:50:17;;;;;;;11.10;6.70;;;;;;;;;;5026454;28;20082;-54
2023/04/06 12:52:42;;;;;;;12.82;6.97;;;;;;;;;;5028491;28;20104;-56
2023/04/06 12:55:08;;;;;;;16.88;7.72;;;;;;;;;;5023990;28;20444;-58
2023/04/06 12:57:33;;;;;;;14.70;6.63;;;;;;;;;;5026598;28;20025;-56
2023/04/06 12:59:59;;;;;;;13.15;6.35;;;;;;;;;;5022651;28;20536;-54
2023/04/06 13:02:25;;;;;;;14.70;6.57;;;;;;;;;;5030011;28;20014;-55
2023/04/06 13:04:51;;;;;;;12.15;6.13;;;;;;;;;;5024595;28;20493;-52
2023/04/06 13:07:16;;;;;;;15.15;7.47;;;;;;;;;;5031263;28;20024;-54
2023/04/06 13:09:42;;;;;;;16.13;7.43;;;;;;;;;;5026633;28;20465;-54
2023/04/06 13:12:07;;;;;;;16.55;6.78;;;;;;;;;;5024936;28;20116;-55
2023/04/06 13:14:32;;;;;;;13.90;6.65;;;;;;;;;;5026047;28;20021;-55
2023/04/06 13:16:57;;;;;;;17.95;7.20;;;;;;;;;;5015892;28;20465;-56
2023/04/06 13:19:23;;;;;;;14.90;7.28;;;;;;;;;;5023492;28;20033;-57
2023/04/06 13:21:48;;;;;;;17.08;8.05;;;;;;;;;;5017511;28;20026;-52
2023/04/06 13:24:14;;;;;;;100.20;13.27;;;;;;;;;;5020877;28;20269;-57
2023/04/06 13:26:39;;;;;;;26.33;8.45;;;;;;;;;;5010022;28;20033;-56
2023/04/06 13:29:04;;;;;;;18.58;8.40;;;;;;;;;;5016354;28;20041;-56
2023/04/06 13:31:30;;;;;;;21.95;9.18;;;;;;;;;;5017417;28;20377;-55
2023/04/06 13:33:55;;;;;;;22.77;10.13;;;;;;;;;;5016229;28;20405;-54
2023/04/06 13:36:20;;;;;;;21.90;10.27;;;;;;;;;;5016715;28;20393;-58
2023/04/06 13:38:46;;;;;;;26.30;10.00;;;;;;;;;;5024891;28;20189;-56
2023/04/06 13:41:20;;;;;;;22.42;10.77;;;;;;;;;;5022542;28;20704;-58
2023/04/06 13:43:46;;;;;;;24.70;10.38;;;;;;;;;;5013305;28;20117;-59
2023/04/06 13:46:11;;;;;;;23.20;10.82;;;;;;;;;;5017380;28;20108;-54
2023/04/06 13:48:36;;;;;;;22.02;10.80;;;;;;;;;;5016707;28;20105;-56
2023/04/06 13:51:11;;;;;;;25.02;10.50;;;;;;;;;;5015742;28;20113;-57
2023/04/06 13:53:37;;;;;;;19.17;9.68;;;;;;;;;;5019645;28;20389;-53
2023/04/06 13:56:02;;;;;;;22.42;10.25;;;;;;;;;;5025240;28;20031;-52
2023/04/06 13:58:27;;;;;;;24.35;10.40;;;;;;;;;;5026469;28;20021;-56
2023/04/06 14:00:53;;;;;;;20.98;10.05;;;;;;;;;;5026274;28;20053;-53
2023/04/06 14:03:18;;;;;;;20.55;10.48;;;;;;;;;;5026243;28;20029;-54
2023/04/06 14:05:44;;;;;;;17.58;10.13;;;;;;;;;;5026220;28;20041;-56
2023/04/06 14:08:10;;;;;;;16.60;9.73;;;;;;;;;;5026096;28;20052;-53
2023/04/06 14:10:38;;;;;;;21.92;10.52;;;;;;;;;;5026466;28;20071;-56
2023/04/06 14:13:04;;;;;;;22.48;11.00;;;;;;;;;;5026314;28;20036;-57
2023/04/06 14:15:29;;;;;;;22.10;11.30;;;;;;;;;;5026220;28;20568;-52
2023/04/06 14:17:55;;;;;;;18.55;9.45;;;;;;;;;;5026088;28;20014;-55
2023/04/06 14:20:20;;;;;;;20.17;10.30;;;;;;;;;;5026315;28;20083;-57